Skopelos — SYHL — position and weather

sailwx.info

Track history (hours):
 
Tides and Currents Weather Stations Pressure Air Temp Water Temp Dewpoint Dewpoint Depression Visibility Wind Speed Wind Dir Waves Ship Positions

Skopelos

Last reported at 2017-Sep-26 07:55 UTC. Time now 2017-Oct-17 20:21 UTC.
Position N 38°22' W 073°38'.
Warning: this ship's position is 21 days out of date.

Length 229 m; draft 12.1 m.

Type: Tanker. MMSI: 240031000.

Date/timePositionNaut miles runAvg speedWind from/ knotsBaromVisibWave heightAir tempDewpointWater temp
2017-Sep-26 07:55N 38°22' W 073°38'912.9
2017-Sep-26 07:15N 38°23' W 073°49'313.1
2017-Sep-26 07:00N 38°23' W 073°53'713.1
2017-Sep-26 06:28N 38°23' W 074°02'2312.9
2017-Sep-26 04:41N 38°23' W 074°31'212.2
2017-Sep-26 04:30N 38°23' W 074°34'612.2
2017-Sep-26 04:00N 38°25' W 074°41'712.6
2017-Sep-26 03:28N 38°30' W 074°47'612.8
2017-Sep-26 03:00N 38°35' W 074°51'612.9
2017-Sep-26 02:30N 38°41' W 074°56'612.3
2017-Sep-26 02:01N 38°45' W 075°01'611.0
2017-Sep-26 01:31N 38°50' W 075°05'5 9.5
2017-Sep-26 01:00N 38°55' W 075°06'511.2
2017-Sep-26 00:31N 38°60' W 075°08'611.4
2017-Sep-26 00:00N 39°05' W 075°11'611.7
2017-Sep-25 23:30N 39°10' W 075°16'612.5
2017-Sep-25 23:00N 39°15' W 075°20'713.1
2017-Sep-25 22:30N 39°20' W 075°25'612.3
2017-Sep-25 22:00N 39°25' W 075°31'611.0
2017-Sep-25 21:30N 39°30' W 075°34'510.7
2017-Sep-25 21:00N 39°35' W 075°34'5 9.0
2017-Sep-25 20:30N 39°40' W 075°33'5 9.7
2017-Sep-25 20:00N 39°44' W 075°30'4 8.6
2017-Sep-25 19:30N 39°47' W 075°27'2 4.4
2017-Sep-25 19:00N 39°48' W 075°24'0 0.1
2017-Sep-25 18:28N 39°48' W 075°24'0 0.0
2017-Sep-25 17:58N 39°48' W 075°24'0 0.1
2017-Sep-25 17:28N 39°48' W 075°24'0 0.1
2017-Sep-25 16:58N 39°48' W 075°24'0 0.4
2017-Sep-25 16:28N 39°48' W 075°24'0 0.1
2017-Sep-25 15:58N 39°48' W 075°24'0 0.0
2017-Sep-25 15:28N 39°48' W 075°24'0 0.1
2017-Sep-25 14:58N 39°48' W 075°24'0 0.1
2017-Sep-25 14:28N 39°48' W 075°24'0 0.0
2017-Sep-25 13:58N 39°48' W 075°24'0 0.0
2017-Sep-25 13:28N 39°48' W 075°24'0 0.0
2017-Sep-25 12:58N 39°48' W 075°24'0 0.0
2017-Sep-25 12:29N 39°48' W 075°24'0 0.8
2017-Sep-25 12:00N 39°49' W 075°24'3 5.3
2017-Sep-25 11:30N 39°50' W 075°21'4 8.1
2017-Sep-25 11:00N 39°51' W 075°16'2 3.8
2017-Sep-25 10:29N 39°51' W 075°14'0 0.0
2017-Sep-25 09:59N 39°51' W 075°14'0 0.0
2017-Sep-25 09:29N 39°51' W 075°14'0 0.0
2017-Sep-25 08:59N 39°51' W 075°14'0 0.0
2017-Sep-25 08:29N 39°51' W 075°14'0 0.0
2017-Sep-25 08:00N 39°51' W 075°14'0 0.0
2017-Sep-25 07:30N 39°51' W 075°14'0 0.0
2017-Sep-25 07:01N 39°51' W 075°14'0 0.0
2017-Sep-25 06:30N 39°51' W 075°14'0 0.0
2017-Sep-25 06:00N 39°51' W 075°14'0 0.0
2017-Sep-25 05:30N 39°51' W 075°14'0 0.0
2017-Sep-25 05:00N 39°51' W 075°14'0 0.0
2017-Sep-25 04:30N 39°51' W 075°14'0 0.0
2017-Sep-25 04:00N 39°51' W 075°14'0 0.0
2017-Sep-25 03:30N 39°51' W 075°14'0 0.0
2017-Sep-25 03:00N 39°51' W 075°14'0 0.0
2017-Sep-25 02:30N 39°51' W 075°14'0 0.0
2017-Sep-25 02:00N 39°51' W 075°14'0 0.0
2017-Sep-25 01:30N 39°51' W 075°14'0 0.0
2017-Sep-25 01:00N 39°51' W 075°14'0 0.0
2017-Sep-25 00:30N 39°51' W 075°14'0 0.0
2017-Sep-25 00:00N 39°51' W 075°14'0 0.0
2017-Sep-24 23:30N 39°51' W 075°14'0 0.0
2017-Sep-24 23:00N 39°51' W 075°14'0 0.0
2017-Sep-24 22:30N 39°51' W 075°14'0 0.0
2017-Sep-24 22:00N 39°51' W 075°14'0 0.0
2017-Sep-24 21:30N 39°51' W 075°14'0 0.0
2017-Sep-24 21:00N 39°51' W 075°14'0 0.0
2017-Sep-24 20:30N 39°51' W 075°14'0 0.0
2017-Sep-24 20:00N 39°51' W 075°14'0 0.0
2017-Sep-24 19:30N 39°51' W 075°14'0 0.0
2017-Sep-24 19:00N 39°51' W 075°14'0 0.0
2017-Sep-24 18:30N 39°51' W 075°14'0 0.0
2017-Sep-24 18:00N 39°51' W 075°14'0 0.0
2017-Sep-24 17:30N 39°51' W 075°14'0 0.0
2017-Sep-24 17:00N 39°51' W 075°14'0 0.0
2017-Sep-24 16:30N 39°51' W 075°14'0 0.0
2017-Sep-24 16:01N 39°51' W 075°14'0 0.0
2017-Sep-24 15:30N 39°51' W 075°14'0 0.0
2017-Sep-24 15:00N 39°51' W 075°14'0 0.0
2017-Sep-24 14:30N 39°51' W 075°14'0 0.0
2017-Sep-24 14:00N 39°51' W 075°14'0 0.0
2017-Sep-24 13:30N 39°51' W 075°14'0 0.0
2017-Sep-24 13:01N 39°51' W 075°14'0 0.0
2017-Sep-24 12:31N 39°51' W 075°14'0 0.0
2017-Sep-24 12:01N 39°51' W 075°14'0 0.0
2017-Sep-24 11:31N 39°51' W 075°14'0 0.0
2017-Sep-24 11:00N 39°51' W 075°14'0 0.0
2017-Sep-24 10:30N 39°51' W 075°14'0 0.0
2017-Sep-24 10:01N 39°51' W 075°14'0 0.0
2017-Sep-24 09:30N 39°51' W 075°14'0 0.0
2017-Sep-24 09:01N 39°51' W 075°14'0 0.0
2017-Sep-24 08:31N 39°51' W 075°14'0 0.0
2017-Sep-24 08:01N 39°51' W 075°14'0 0.0
2017-Sep-24 07:31N 39°51' W 075°14'0 0.0
2017-Sep-24 07:00N 39°51' W 075°14'0 0.0
2017-Sep-24 06:30N 39°51' W 075°14'0 0.0
2017-Sep-24 06:00N 39°51' W 075°14'0 0.0
2017-Sep-24 05:30N 39°51' W 075°14'0 0.0
2017-Sep-24 05:00N 39°51' W 075°14'0 0.0
2017-Sep-24 04:31N 39°51' W 075°14'0 0.0
2017-Sep-24 04:01N 39°51' W 075°14'0 0.0
2017-Sep-24 03:31N 39°51' W 075°14'0 0.0
2017-Sep-24 03:01N 39°51' W 075°14'0 0.0
2017-Sep-24 02:30N 39°51' W 075°14'0 0.0
2017-Sep-24 02:00N 39°51' W 075°14'0 0.0
2017-Sep-24 01:30N 39°51' W 075°14'0 0.0
2017-Sep-24 01:00N 39°51' W 075°14'0 0.0
2017-Sep-24 00:30N 39°51' W 075°14'0 0.0
2017-Sep-24 00:00N 39°51' W 075°14'0 0.0
2017-Sep-23 23:30N 39°51' W 075°14'0 0.0
2017-Sep-23 23:00N 39°51' W 075°14'0 0.0
2017-Sep-23 22:30N 39°51' W 075°14'0 0.0
2017-Sep-23 22:00N 39°51' W 075°14'0 0.0
2017-Sep-23 21:30N 39°51' W 075°14'0 0.0
2017-Sep-23 21:01N 39°51' W 075°14'1 2.6
2017-Sep-23 20:31N 39°52' W 075°13'2 4.6
2017-Sep-23 20:00N 39°53' W 075°10'19 0.5
2017-Sep-22 02:00N 39°43' W 075°31'0 0.0
2017-Sep-22 01:30N 39°43' W 075°31'0 0.0
2017-Sep-22 01:00N 39°43' W 075°31'0 0.0
2017-Sep-22 00:30N 39°43' W 075°31'0 0.0
2017-Sep-22 00:00N 39°43' W 075°31'0 0.0
2017-Sep-21 23:27N 39°43' W 075°31'0 0.0
2017-Sep-21 23:00N 39°43' W 075°31'0 0.0
2017-Sep-21 22:30N 39°43' W 075°31'0 0.0
2017-Sep-21 22:00N 39°43' W 075°31'0 0.0
2017-Sep-21 21:30N 39°43' W 075°31'0 0.0
2017-Sep-21 21:00N 39°43' W 075°31'0 0.0
2017-Sep-21 20:30N 39°43' W 075°31'0 0.0
2017-Sep-21 20:00N 39°43' W 075°31'0 0.0
2017-Sep-21 19:30N 39°43' W 075°31'0 0.0
2017-Sep-21 19:00N 39°43' W 075°31'0 0.0
2017-Sep-21 18:27N 39°43' W 075°31'0 0.0
2017-Sep-21 18:00N 39°43' W 075°31'0 0.0
2017-Sep-21 17:30N 39°43' W 075°31'0 0.0
2017-Sep-21 17:00N 39°43' W 075°31'0 0.0
2017-Sep-21 16:30N 39°43' W 075°31'0 0.0
2017-Sep-21 16:00N 39°43' W 075°31'0 0.0
2017-Sep-21 15:30N 39°43' W 075°31'0 0.0
2017-Sep-21 15:00N 39°43' W 075°31'0 0.0
2017-Sep-21 14:30N 39°43' W 075°31'0 0.0
2017-Sep-21 13:57N 39°43' W 075°31'0 0.0
2017-Sep-21 13:30N 39°43' W 075°31'0 0.5
2017-Sep-21 13:00N 39°43' W 075°31'2 3.1
2017-Sep-21 12:31N 39°41' W 075°31'4 8.7
2017-Sep-21 12:01N 39°38' W 075°34'510.1
2017-Sep-21 11:31N 39°33' W 075°32'611.1
2017-Sep-21 11:01N 39°27' W 075°34'510.8
2017-Sep-21 10:31N 39°23' W 075°29'611.8
2017-Sep-21 10:01N 39°19' W 075°24'611.9
2017-Sep-21 09:31N 39°15' W 075°19'611.9
2017-Sep-21 09:01N 39°09' W 075°15'612.5
2017-Sep-21 08:31N 39°04' W 075°11'612.7
2017-Sep-21 08:00N 38°58' W 075°07'612.4
2017-Sep-21 07:30N 38°53' W 075°04'510.7
2017-Sep-21 07:00N 38°47' W 075°02'3 6.7
2017-Sep-21 06:30N 38°45' W 074°59'4 7.6
2017-Sep-21 06:00N 38°43' W 074°55'4 7.4
2017-Sep-21 05:27N 38°40' W 074°52'4 8.9
2017-Sep-21 05:00N 38°36' W 074°49'6 8.5
2017-Sep-21 04:15N 38°31' W 074°44'4 9.6
2017-Sep-21 03:52N 38°28' W 074°41'  
2017-Sep-16 09:52N 26°14' W 078°55'  
Track history (hours):
 
Tides and Currents Weather Stations Pressure Air Temp Water Temp Dewpoint Dewpoint Depression Visibility Wind Speed Wind Dir Waves Ship Positions

Skopelos

Last reported at 2017-Sep-26 07:55 UTC. Time now 2017-Oct-17 20:21 UTC.
Position N 38°22' W 073°38'.
Warning: this ship's position is 21 days out of date.

Length 229 m; draft 12.1 m.

Type: Tanker. MMSI: 240031000.

Date/timePositionNaut miles runAvg speedWind from/ knotsBaromVisibWave heightAir tempDewpointWater temp
2017-Sep-26 07:55N 38°22' W 073°38'912.9
2017-Sep-26 07:15N 38°23' W 073°49'313.1
2017-Sep-26 07:00N 38°23' W 073°53'713.1
2017-Sep-26 06:28N 38°23' W 074°02'2312.9
2017-Sep-26 04:41N 38°23' W 074°31'212.2
2017-Sep-26 04:30N 38°23' W 074°34'612.2
2017-Sep-26 04:00N 38°25' W 074°41'712.6
2017-Sep-26 03:28N 38°30' W 074°47'612.8
2017-Sep-26 03:00N 38°35' W 074°51'612.9
2017-Sep-26 02:30N 38°41' W 074°56'612.3
2017-Sep-26 02:01N 38°45' W 075°01'611.0
2017-Sep-26 01:31N 38°50' W 075°05'5 9.5
2017-Sep-26 01:00N 38°55' W 075°06'511.2
2017-Sep-26 00:31N 38°60' W 075°08'611.4
2017-Sep-26 00:00N 39°05' W 075°11'611.7
2017-Sep-25 23:30N 39°10' W 075°16'612.5
2017-Sep-25 23:00N 39°15' W 075°20'713.1
2017-Sep-25 22:30N 39°20' W 075°25'612.3
2017-Sep-25 22:00N 39°25' W 075°31'611.0
2017-Sep-25 21:30N 39°30' W 075°34'510.7
2017-Sep-25 21:00N 39°35' W 075°34'5 9.0
2017-Sep-25 20:30N 39°40' W 075°33'5 9.7
2017-Sep-25 20:00N 39°44' W 075°30'4 8.6
2017-Sep-25 19:30N 39°47' W 075°27'2 4.4
2017-Sep-25 19:00N 39°48' W 075°24'0 0.1
2017-Sep-25 18:28N 39°48' W 075°24'0 0.0
2017-Sep-25 17:58N 39°48' W 075°24'0 0.1
2017-Sep-25 17:28N 39°48' W 075°24'0 0.1
2017-Sep-25 16:58N 39°48' W 075°24'0 0.4
2017-Sep-25 16:28N 39°48' W 075°24'0 0.1
2017-Sep-25 15:58N 39°48' W 075°24'0 0.0
2017-Sep-25 15:28N 39°48' W 075°24'0 0.1
2017-Sep-25 14:58N 39°48' W 075°24'0 0.1
2017-Sep-25 14:28N 39°48' W 075°24'0 0.0
2017-Sep-25 13:58N 39°48' W 075°24'0 0.0
2017-Sep-25 13:28N 39°48' W 075°24'0 0.0
2017-Sep-25 12:58N 39°48' W 075°24'0 0.0
2017-Sep-25 12:29N 39°48' W 075°24'0 0.8
2017-Sep-25 12:00N 39°49' W 075°24'3 5.3
2017-Sep-25 11:30N 39°50' W 075°21'4 8.1
2017-Sep-25 11:00N 39°51' W 075°16'2 3.8
2017-Sep-25 10:29N 39°51' W 075°14'0 0.0
2017-Sep-25 09:59N 39°51' W 075°14'0 0.0
2017-Sep-25 09:29N 39°51' W 075°14'0 0.0
2017-Sep-25 08:59N 39°51' W 075°14'0 0.0
2017-Sep-25 08:29N 39°51' W 075°14'0 0.0
2017-Sep-25 08:00N 39°51' W 075°14'0 0.0
2017-Sep-25 07:30N 39°51' W 075°14'0 0.0
2017-Sep-25 07:01N 39°51' W 075°14'0 0.0
2017-Sep-25 06:30N 39°51' W 075°14'0 0.0
2017-Sep-25 06:00N 39°51' W 075°14'0 0.0
2017-Sep-25 05:30N 39°51' W 075°14'0 0.0
2017-Sep-25 05:00N 39°51' W 075°14'0 0.0
2017-Sep-25 04:30N 39°51' W 075°14'0 0.0
2017-Sep-25 04:00N 39°51' W 075°14'0 0.0
2017-Sep-25 03:30N 39°51' W 075°14'0 0.0
2017-Sep-25 03:00N 39°51' W 075°14'0 0.0
2017-Sep-25 02:30N 39°51' W 075°14'0 0.0
2017-Sep-25 02:00N 39°51' W 075°14'0 0.0
2017-Sep-25 01:30N 39°51' W 075°14'0 0.0
2017-Sep-25 01:00N 39°51' W 075°14'0 0.0
2017-Sep-25 00:30N 39°51' W 075°14'0 0.0
2017-Sep-25 00:00N 39°51' W 075°14'0 0.0
2017-Sep-24 23:30N 39°51' W 075°14'0 0.0
2017-Sep-24 23:00N 39°51' W 075°14'0 0.0
2017-Sep-24 22:30N 39°51' W 075°14'0 0.0
2017-Sep-24 22:00N 39°51' W 075°14'0 0.0
2017-Sep-24 21:30N 39°51' W 075°14'0 0.0
2017-Sep-24 21:00N 39°51' W 075°14'0 0.0
2017-Sep-24 20:30N 39°51' W 075°14'0 0.0
2017-Sep-24 20:00N 39°51' W 075°14'0 0.0
2017-Sep-24 19:30N 39°51' W 075°14'0 0.0
2017-Sep-24 19:00N 39°51' W 075°14'0 0.0
2017-Sep-24 18:30N 39°51' W 075°14'0 0.0
2017-Sep-24 18:00N 39°51' W 075°14'0 0.0
2017-Sep-24 17:30N 39°51' W 075°14'0 0.0
2017-Sep-24 17:00N 39°51' W 075°14'0 0.0
2017-Sep-24 16:30N 39°51' W 075°14'0 0.0
2017-Sep-24 16:01N 39°51' W 075°14'0 0.0
2017-Sep-24 15:30N 39°51' W 075°14'0 0.0
2017-Sep-24 15:00N 39°51' W 075°14'0 0.0
2017-Sep-24 14:30N 39°51' W 075°14'0 0.0
2017-Sep-24 14:00N 39°51' W 075°14'0 0.0
2017-Sep-24 13:30N 39°51' W 075°14'0 0.0
2017-Sep-24 13:01N 39°51' W 075°14'0 0.0
2017-Sep-24 12:31N 39°51' W 075°14'0 0.0
2017-Sep-24 12:01N 39°51' W 075°14'0 0.0
2017-Sep-24 11:31N 39°51' W 075°14'0 0.0
2017-Sep-24 11:00N 39°51' W 075°14'0 0.0
2017-Sep-24 10:30N 39°51' W 075°14'0 0.0
2017-Sep-24 10:01N 39°51' W 075°14'0 0.0
2017-Sep-24 09:30N 39°51' W 075°14'0 0.0
2017-Sep-24 09:01N 39°51' W 075°14'0 0.0
2017-Sep-24 08:31N 39°51' W 075°14'0 0.0
2017-Sep-24 08:01N 39°51' W 075°14'0 0.0
2017-Sep-24 07:31N 39°51' W 075°14'0 0.0
2017-Sep-24 07:00N 39°51' W 075°14'0 0.0
2017-Sep-24 06:30N 39°51' W 075°14'0 0.0
2017-Sep-24 06:00N 39°51' W 075°14'0 0.0
2017-Sep-24 05:30N 39°51' W 075°14'0 0.0
2017-Sep-24 05:00N 39°51' W 075°14'0 0.0
2017-Sep-24 04:31N 39°51' W 075°14'0 0.0
2017-Sep-24 04:01N 39°51' W 075°14'0 0.0
2017-Sep-24 03:31N 39°51' W 075°14'0 0.0
2017-Sep-24 03:01N 39°51' W 075°14'0 0.0
2017-Sep-24 02:30N 39°51' W 075°14'0 0.0
2017-Sep-24 02:00N 39°51' W 075°14'0 0.0
2017-Sep-24 01:30N 39°51' W 075°14'0 0.0
2017-Sep-24 01:00N 39°51' W 075°14'0 0.0
2017-Sep-24 00:30N 39°51' W 075°14'0 0.0
2017-Sep-24 00:00N 39°51' W 075°14'0 0.0
2017-Sep-23 23:30N 39°51' W 075°14'0 0.0
2017-Sep-23 23:00N 39°51' W 075°14'0 0.0
2017-Sep-23 22:30N 39°51' W 075°14'0 0.0
2017-Sep-23 22:00N 39°51' W 075°14'0 0.0
2017-Sep-23 21:30N 39°51' W 075°14'0 0.0
2017-Sep-23 21:01N 39°51' W 075°14'1 2.6
2017-Sep-23 20:31N 39°52' W 075°13'2 4.6
2017-Sep-23 20:00N 39°53' W 075°10'19 0.5
2017-Sep-22 02:00N 39°43' W 075°31'0 0.0
2017-Sep-22 01:30N 39°43' W 075°31'0 0.0
2017-Sep-22 01:00N 39°43' W 075°31'0 0.0
2017-Sep-22 00:30N 39°43' W 075°31'0 0.0
2017-Sep-22 00:00N 39°43' W 075°31'0 0.0
2017-Sep-21 23:27N 39°43' W 075°31'0 0.0
2017-Sep-21 23:00N 39°43' W 075°31'0 0.0
2017-Sep-21 22:30N 39°43' W 075°31'0 0.0
2017-Sep-21 22:00N 39°43' W 075°31'0 0.0
2017-Sep-21 21:30N 39°43' W 075°31'0 0.0
2017-Sep-21 21:00N 39°43' W 075°31'0 0.0
2017-Sep-21 20:30N 39°43' W 075°31'0 0.0
2017-Sep-21 20:00N 39°43' W 075°31'0 0.0
2017-Sep-21 19:30N 39°43' W 075°31'0 0.0
2017-Sep-21 19:00N 39°43' W 075°31'0 0.0
2017-Sep-21 18:27N 39°43' W 075°31'0 0.0
2017-Sep-21 18:00N 39°43' W 075°31'0 0.0
2017-Sep-21 17:30N 39°43' W 075°31'0 0.0
2017-Sep-21 17:00N 39°43' W 075°31'0 0.0
2017-Sep-21 16:30N 39°43' W 075°31'0 0.0
2017-Sep-21 16:00N 39°43' W 075°31'0 0.0
2017-Sep-21 15:30N 39°43' W 075°31'0 0.0
2017-Sep-21 15:00N 39°43' W 075°31'0 0.0
2017-Sep-21 14:30N 39°43' W 075°31'0 0.0
2017-Sep-21 13:57N 39°43' W 075°31'0 0.0
2017-Sep-21 13:30N 39°43' W 075°31'0 0.5
2017-Sep-21 13:00N 39°43' W 075°31'2 3.1
2017-Sep-21 12:31N 39°41' W 075°31'4 8.7
2017-Sep-21 12:01N 39°38' W 075°34'510.1
2017-Sep-21 11:31N 39°33' W 075°32'611.1
2017-Sep-21 11:01N 39°27' W 075°34'510.8
2017-Sep-21 10:31N 39°23' W 075°29'611.8
2017-Sep-21 10:01N 39°19' W 075°24'611.9
2017-Sep-21 09:31N 39°15' W 075°19'611.9
2017-Sep-21 09:01N 39°09' W 075°15'612.5
2017-Sep-21 08:31N 39°04' W 075°11'612.7
2017-Sep-21 08:00N 38°58' W 075°07'612.4
2017-Sep-21 07:30N 38°53' W 075°04'510.7
2017-Sep-21 07:00N 38°47' W 075°02'3 6.7
2017-Sep-21 06:30N 38°45' W 074°59'4 7.6
2017-Sep-21 06:00N 38°43' W 074°55'4 7.4
2017-Sep-21 05:27N 38°40' W 074°52'4 8.9
2017-Sep-21 05:00N 38°36' W 074°49'6 8.5
2017-Sep-21 04:15N 38°31' W 074°44'4 9.6
2017-Sep-21 03:52N 38°28' W 074°41'  
2017-Sep-16 09:52N 26°14' W 078°55'  

Dump ship's entire track history